sensor_id;sensor_type;location;lat;lon;timestamp;temperature;humidity
39919;DHT22;25589;51.552;13.424;2024-03-22T00:01:53;10.50;99.90
39919;DHT22;25589;51.552;13.424;2024-03-22T00:04:18;10.60;99.90
39919;DHT22;25589;51.552;13.424;2024-03-22T00:06:46;10.00;99.90
39919;DHT22;25589;51.552;13.424;2024-03-22T00:09:13;10.30;99.90
39919;DHT22;25589;51.552;13.424;2024-03-22T00:11:42;10.60;99.90
39919;DHT22;25589;51.552;13.424;2024-03-22T00:16:35;10.00;99.90
39919;DHT22;25589;51.552;13.424;2024-03-22T00:19:01;11.00;99.90
39919;DHT22;25589;51.552;13.424;2024-03-22T00:21:27;10.30;99.90
39919;DHT22;25589;51.552;13.424;2024-03-22T00:23:53;10.40;99.90
39919;DHT22;25589;51.552;13.424;2024-03-22T00:26:19;10.30;99.90
39919;DHT22;25589;51.552;13.424;2024-03-22T00:28:44;9.60;99.90
39919;DHT22;25589;51.552;13.424;2024-03-22T00:31:10;10.80;99.90
39919;DHT22;25589;51.552;13.424;2024-03-22T00:33:35;10.40;99.90
39919;DHT22;25589;51.552;13.424;2024-03-22T00:36:01;10.20;99.90
39919;DHT22;25589;51.552;13.424;2024-03-22T00:38:27;10.10;99.90
39919;DHT22;25589;51.552;13.424;2024-03-22T00:40:52;10.20;99.90
39919;DHT22;25589;51.552;13.424;2024-03-22T00:43:19;10.10;99.90
39919;DHT22;25589;51.552;13.424;2024-03-22T00:45:44;10.10;99.90
39919;DHT22;25589;51.552;13.424;2024-03-22T00:48:10;10.20;99.90
39919;DHT22;25589;51.552;13.424;2024-03-22T00:50:35;10.20;99.90
39919;DHT22;25589;51.552;13.424;2024-03-22T00:53:01;10.10;99.90
39919;DHT22;25589;51.552;13.424;2024-03-22T00:55:28;10.10;99.90
39919;DHT22;25589;51.552;13.424;2024-03-22T00:57:54;10.10;99.90
39919;DHT22;25589;51.552;13.424;2024-03-22T01:05:11;10.10;99.90
39919;DHT22;25589;51.552;13.424;2024-03-22T01:07:37;10.20;99.90
39919;DHT22;25589;51.552;13.424;2024-03-22T01:10:04;10.10;99.90
39919;DHT22;25589;51.552;13.424;2024-03-22T01:12:30;10.60;99.90
39919;DHT22;25589;51.552;13.424;2024-03-22T01:14:57;10.10;99.90
39919;DHT22;25589;51.552;13.424;2024-03-22T01:17:22;9.90;99.90
39919;DHT22;25589;51.552;13.424;2024-03-22T01:19:48;10.00;99.90
39919;DHT22;25589;51.552;13.424;2024-03-22T01:22:14;10.10;99.90
39919;DHT22;25589;51.552;13.424;2024-03-22T01:24:39;10.00;99.90
39919;DHT22;25589;51.552;13.424;2024-03-22T01:29:31;10.10;99.90
39919;DHT22;25589;51.552;13.424;2024-03-22T01:31:58;10.00;99.90
39919;DHT22;25589;51.552;13.424;2024-03-22T01:34:24;10.00;99.90
39919;DHT22;25589;51.552;13.424;2024-03-22T01:36:51;10.80;99.90
39919;DHT22;25589;51.552;13.424;2024-03-22T01:39:16;10.60;99.90
39919;DHT22;25589;51.552;13.424;2024-03-22T01:41:43;9.90;99.90
39919;DHT22;25589;51.552;13.424;2024-03-22T01:44:08;10.30;99.90
39919;DHT22;25589;51.552;13.424;2024-03-22T01:49:01;10.20;99.90
39919;DHT22;25589;51.552;13.424;2024-03-22T01:51:26;10.30;99.90
39919;DHT22;25589;51.552;13.424;2024-03-22T01:53:53;9.80;99.90
39919;DHT22;25589;51.552;13.424;2024-03-22T01:56:19;9.80;99.90
39919;DHT22;25589;51.552;13.424;2024-03-22T01:58:45;9.80;99.90
39919;DHT22;25589;51.552;13.424;2024-03-22T02:01:11;9.70;99.90
39919;DHT22;25589;51.552;13.424;2024-03-22T02:03:36;9.70;99.90
39919;DHT22;25589;51.552;13.424;2024-03-22T02:06:02;9.70;99.90
39919;DHT22;25589;51.552;13.424;2024-03-22T02:08:28;9.90;99.90
39919;DHT22;25589;51.552;13.424;2024-03-22T02:10:54;10.00;99.90
39919;DHT22;25589;51.552;13.424;2024-03-22T02:13:19;9.60;99.90
39919;DHT22;25589;51.552;13.424;2024-03-22T02:15:45;9.60;99.90
39919;DHT22;25589;51.552;13.424;2024-03-22T02:18:10;9.60;99.90
39919;DHT22;25589;51.552;13.424;2024-03-22T02:20:36;9.60;99.90
39919;DHT22;25589;51.552;13.424;2024-03-22T02:25:27;9.40;99.90
39919;DHT22;25589;51.552;13.424;2024-03-22T02:27:53;9.10;99.90
39919;DHT22;25589;51.552;13.424;2024-03-22T02:30:19;9.50;99.90
39919;DHT22;25589;51.552;13.424;2024-03-22T02:32:44;9.10;99.90
39919;DHT22;25589;51.552;13.424;2024-03-22T02:35:10;9.80;99.90
39919;DHT22;25589;51.552;13.424;2024-03-22T02:37:36;9.50;99.90
39919;DHT22;25589;51.552;13.424;2024-03-22T02:40:01;9.40;99.90
39919;DHT22;25589;51.552;13.424;2024-03-22T02:42:27;9.50;99.90
39919;DHT22;25589;51.552;13.424;2024-03-22T02:44:52;9.70;99.90
39919;DHT22;25589;51.552;13.424;2024-03-22T02:47:18;9.50;99.90
39919;DHT22;25589;51.552;13.424;2024-03-22T02:49:44;9.60;99.90
39919;DHT22;25589;51.552;13.424;2024-03-22T02:52:10;9.80;99.90
39919;DHT22;25589;51.552;13.424;2024-03-22T02:54:35;9.60;99.90
39919;DHT22;25589;51.552;13.424;2024-03-22T02:57:01;8.20;99.90
39919;DHT22;25589;51.552;13.424;2024-03-22T02:59:27;9.60;99.90
39919;DHT22;25589;51.552;13.424;2024-03-22T03:01:53;9.60;99.90
39919;DHT22;25589;51.552;13.424;2024-03-22T03:04:19;9.50;99.90
39919;DHT22;25589;51.552;13.424;2024-03-22T03:10:32;9.60;99.90
39919;DHT22;25589;51.552;13.424;2024-03-22T03:12:57;9.60;99.90
39919;DHT22;25589;51.552;13.424;2024-03-22T03:15:23;9.60;99.90
39919;DHT22;25589;51.552;13.424;2024-03-22T03:17:49;9.60;99.90
39919;DHT22;25589;51.552;13.424;2024-03-22T03:20:14;9.60;99.90
39919;DHT22;25589;51.552;13.424;2024-03-22T03:22:40;9.60;99.90
39919;DHT22;25589;51.552;13.424;2024-03-22T03:25:06;10.10;99.90
39919;DHT22;25589;51.552;13.424;2024-03-22T03:27:32;9.70;99.90
39919;DHT22;25589;51.552;13.424;2024-03-22T03:29:58;10.00;99.90
39919;DHT22;25589;51.552;13.424;2024-03-22T03:32:24;9.70;99.90
39919;DHT22;25589;51.552;13.424;2024-03-22T03:34:50;9.60;99.90
39919;DHT22;25589;51.552;13.424;2024-03-22T03:37:16;9.60;99.90
39919;DHT22;25589;51.552;13.424;2024-03-22T03:39:41;10.50;99.90
39919;DHT22;25589;51.552;13.424;2024-03-22T03:42:07;9.40;99.90
39919;DHT22;25589;51.552;13.424;2024-03-22T03:44:33;9.60;99.90
39919;DHT22;25589;51.552;13.424;2024-03-22T03:47:01;9.60;99.90
39919;DHT22;25589;51.552;13.424;2024-03-22T03:49:26;9.70;99.90
39919;DHT22;25589;51.552;13.424;2024-03-22T03:51:52;9.40;99.90
39919;DHT22;25589;51.552;13.424;2024-03-22T03:54:17;9.10;99.90
39919;DHT22;25589;51.552;13.424;2024-03-22T03:56:43;9.80;99.90
39919;DHT22;25589;51.552;13.424;2024-03-22T03:59:09;10.10;99.90
39919;DHT22;25589;51.552;13.424;2024-03-22T04:01:34;10.00;99.90
39919;DHT22;25589;51.552;13.424;2024-03-22T04:04:00;9.60;99.90
39919;DHT22;25589;51.552;13.424;2024-03-22T04:06:26;9.90;99.90
39919;DHT22;25589;51.552;13.424;2024-03-22T04:08:51;10.30;99.90
39919;DHT22;25589;51.552;13.424;2024-03-22T04:11:17;10.20;99.90
39919;DHT22;25589;51.552;13.424;2024-03-22T04:13:42;9.50;99.90
39919;DHT22;25589;51.552;13.424;2024-03-22T04:16:08;9.70;99.90
39919;DHT22;25589;51.552;13.424;2024-03-22T04:18:34;10.20;99.90
39919;DHT22;25589;51.552;13.424;2024-03-22T04:21:01;9.90;99.90
39919;DHT22;25589;51.552;13.424;2024-03-22T04:23:26;9.60;99.90
39919;DHT22;25589;51.552;13.424;2024-03-22T04:25:57;9.60;99.90
39919;DHT22;25589;51.552;13.424;2024-03-22T04:28:27;9.60;99.90
39919;DHT22;25589;51.552;13.424;2024-03-22T04:31:00;9.20;99.90
39919;DHT22;25589;51.552;13.424;2024-03-22T04:33:27;10.00;99.90
39919;DHT22;25589;51.552;13.424;2024-03-22T04:35:54;9.60;99.90
39919;DHT22;25589;51.552;13.424;2024-03-22T04:38:20;9.50;99.90
39919;DHT22;25589;51.552;13.424;2024-03-22T04:40:49;9.40;99.90
39919;DHT22;25589;51.552;13.424;2024-03-22T04:43:15;9.50;99.90
39919;DHT22;25589;51.552;13.424;2024-03-22T04:45:45;9.40;99.90
39919;DHT22;25589;51.552;13.424;2024-03-22T04:48:19;9.00;99.90
39919;DHT22;25589;51.552;13.424;2024-03-22T04:50:46;9.40;99.90
39919;DHT22;25589;51.552;13.424;2024-03-22T04:53:13;9.40;99.90
39919;DHT22;25589;51.552;13.424;2024-03-22T04:55:39;9.40;99.90
39919;DHT22;25589;51.552;13.424;2024-03-22T04:58:16;9.40;99.90
39919;DHT22;25589;51.552;13.424;2024-03-22T05:04:12;9.90;99.90
39919;DHT22;25589;51.552;13.424;2024-03-22T05:06:38;9.60;99.90
39919;DHT22;25589;51.552;13.424;2024-03-22T05:09:04;9.30;99.90
39919;DHT22;25589;51.552;13.424;2024-03-22T05:11:29;9.40;99.90
39919;DHT22;25589;51.552;13.424;2024-03-22T05:13:57;9.40;99.90
39919;DHT22;25589;51.552;13.424;2024-03-22T05:16:23;9.00;99.90
39919;DHT22;25589;51.552;13.424;2024-03-22T05:18:49;9.40;99.90
39919;DHT22;25589;51.552;13.424;2024-03-22T05:21:14;12.00;99.90
39919;DHT22;25589;51.552;13.424;2024-03-22T05:23:40;9.50;99.90
39919;DHT22;25589;51.552;13.424;2024-03-22T05:26:06;9.50;99.90
39919;DHT22;25589;51.552;13.424;2024-03-22T05:28:31;9.50;99.90
39919;DHT22;25589;51.552;13.424;2024-03-22T05:30:57;9.50;99.90
39919;DHT22;25589;51.552;13.424;2024-03-22T05:33:23;9.30;99.90
39919;DHT22;25589;51.552;13.424;2024-03-22T05:35:48;9.60;99.90
39919;DHT22;25589;51.552;13.424;2024-03-22T05:38:14;9.60;99.90
39919;DHT22;25589;51.552;13.424;2024-03-22T05:40:40;9.60;99.90
39919;DHT22;25589;51.552;13.424;2024-03-22T05:43:05;9.70;99.90
39919;DHT22;25589;51.552;13.424;2024-03-22T05:45:31;9.60;99.90
39919;DHT22;25589;51.552;13.424;2024-03-22T05:47:57;10.90;99.90
39919;DHT22;25589;51.552;13.424;2024-03-22T05:50:22;9.60;99.90
39919;DHT22;25589;51.552;13.424;2024-03-22T05:52:48;9.50;99.90
39919;DHT22;25589;51.552;13.424;2024-03-22T05:55:13;9.60;99.90
39919;DHT22;25589;51.552;13.424;2024-03-22T05:57:39;9.50;99.90
39919;DHT22;25589;51.552;13.424;2024-03-22T06:00:05;9.60;99.90
39919;DHT22;25589;51.552;13.424;2024-03-22T06:02:32;9.70;99.90
39919;DHT22;25589;51.552;13.424;2024-03-22T06:04:58;9.80;99.90
39919;DHT22;25589;51.552;13.424;2024-03-22T06:07:24;9.90;99.90
39919;DHT22;25589;51.552;13.424;2024-03-22T06:09:52;10.00;99.90
39919;DHT22;25589;51.552;13.424;2024-03-22T06:12:18;10.00;99.90
39919;DHT22;25589;51.552;13.424;2024-03-22T06:14:44;9.90;99.90
39919;DHT22;25589;51.552;13.424;2024-03-22T06:17:10;9.90;99.90
39919;DHT22;25589;51.552;13.424;2024-03-22T06:19:37;9.90;99.90
39919;DHT22;25589;51.552;13.424;2024-03-22T06:22:03;9.90;99.90
39919;DHT22;25589;51.552;13.424;2024-03-22T06:24:28;8.90;99.90
39919;DHT22;25589;51.552;13.424;2024-03-22T06:26:54;9.90;99.90
39919;DHT22;25589;51.552;13.424;2024-03-22T06:29:20;9.90;99.90
39919;DHT22;25589;51.552;13.424;2024-03-22T06:31:46;10.40;99.90
39919;DHT22;25589;51.552;13.424;2024-03-22T06:34:12;9.90;99.90
39919;DHT22;25589;51.552;13.424;2024-03-22T06:36:38;9.70;99.90
39919;DHT22;25589;51.552;13.424;2024-03-22T06:39:04;9.90;99.90
39919;DHT22;25589;51.552;13.424;2024-03-22T06:41:32;10.40;99.90
39919;DHT22;25589;51.552;13.424;2024-03-22T06:43:58;10.00;99.90
39919;DHT22;25589;51.552;13.424;2024-03-22T06:46:24;10.10;99.90
39919;DHT22;25589;51.552;13.424;2024-03-22T06:48:50;9.80;99.90
39919;DHT22;25589;51.552;13.424;2024-03-22T06:51:16;10.20;99.90
39919;DHT22;25589;51.552;13.424;2024-03-22T06:53:41;10.20;99.90
39919;DHT22;25589;51.552;13.424;2024-03-22T06:56:07;10.00;99.90
39919;DHT22;25589;51.552;13.424;2024-03-22T06:58:35;9.90;99.90
39919;DHT22;25589;51.552;13.424;2024-03-22T07:01:01;10.40;99.90
39919;DHT22;25589;51.552;13.424;2024-03-22T07:03:26;10.20;99.90
39919;DHT22;25589;51.552;13.424;2024-03-22T07:05:52;10.40;99.90
39919;DHT22;25589;51.552;13.424;2024-03-22T07:08:18;10.50;99.90
39919;DHT22;25589;51.552;13.424;2024-03-22T07:13:11;10.60;99.90
39919;DHT22;25589;51.552;13.424;2024-03-22T07:15:36;10.50;99.90
39919;DHT22;25589;51.552;13.424;2024-03-22T07:18:03;10.50;99.90
39919;DHT22;25589;51.552;13.424;2024-03-22T07:20:30;11.50;99.90
39919;DHT22;25589;51.552;13.424;2024-03-22T07:22:55;10.70;99.90
39919;DHT22;25589;51.552;13.424;2024-03-22T07:25:21;10.90;99.90
39919;DHT22;25589;51.552;13.424;2024-03-22T07:27:47;10.80;99.90
39919;DHT22;25589;51.552;13.424;2024-03-22T07:30:14;10.80;99.90
39919;DHT22;25589;51.552;13.424;2024-03-22T07:32:40;10.80;99.90
39919;DHT22;25589;51.552;13.424;2024-03-22T07:35:05;10.80;99.90
39919;DHT22;25589;51.552;13.424;2024-03-22T07:37:33;10.80;99.90
39919;DHT22;25589;51.552;13.424;2024-03-22T07:39:59;10.90;99.90
39919;DHT22;25589;51.552;13.424;2024-03-22T07:42:25;11.40;99.90
39919;DHT22;25589;51.552;13.424;2024-03-22T07:44:51;11.00;99.90
39919;DHT22;25589;51.552;13.424;2024-03-22T07:47:16;10.90;99.90
39919;DHT22;25589;51.552;13.424;2024-03-22T07:52:08;11.20;99.90
39919;DHT22;25589;51.552;13.424;2024-03-22T07:54:34;12.00;99.90
39919;DHT22;25589;51.552;13.424;2024-03-22T07:57:00;11.30;99.90
39919;DHT22;25589;51.552;13.424;2024-03-22T07:59:25;11.30;99.90
39919;DHT22;25589;51.552;13.424;2024-03-22T08:01:51;11.30;99.90
39919;DHT22;25589;51.552;13.424;2024-03-22T08:04:17;11.40;99.90
39919;DHT22;25589;51.552;13.424;2024-03-22T08:06:42;11.50;99.90
39919;DHT22;25589;51.552;13.424;2024-03-22T08:09:08;11.50;99.90
39919;DHT22;25589;51.552;13.424;2024-03-22T08:11:34;11.50;99.90
39919;DHT22;25589;51.552;13.424;2024-03-22T08:13:59;11.60;99.90
39919;DHT22;25589;51.552;13.424;2024-03-22T08:18:58;12.40;99.90
39919;DHT22;25589;51.552;13.424;2024-03-22T08:21:24;11.80;99.90
39919;DHT22;25589;51.552;13.424;2024-03-22T08:23:50;12.40;99.90
39919;DHT22;25589;51.552;13.424;2024-03-22T08:26:16;13.00;99.90
39919;DHT22;25589;51.552;13.424;2024-03-22T08:28:42;11.90;99.90
39919;DHT22;25589;51.552;13.424;2024-03-22T08:31:07;11.70;99.90
39919;DHT22;25589;51.552;13.424;2024-03-22T08:33:33;12.10;99.90
39919;DHT22;25589;51.552;13.424;2024-03-22T08:35:59;11.90;99.90
39919;DHT22;25589;51.552;13.424;2024-03-22T08:38:25;12.20;99.90
39919;DHT22;25589;51.552;13.424;2024-03-22T08:40:51;12.30;99.90
39919;DHT22;25589;51.552;13.424;2024-03-22T08:43:17;12.50;99.90
39919;DHT22;25589;51.552;13.424;2024-03-22T08:45:42;13.40;99.90
39919;DHT22;25589;51.552;13.424;2024-03-22T08:48:08;12.20;99.90
39919;DHT22;25589;51.552;13.424;2024-03-22T08:50:34;12.30;99.90
39919;DHT22;25589;51.552;13.424;2024-03-22T08:52:59;12.80;99.90
39919;DHT22;25589;51.552;13.424;2024-03-22T08:55:28;13.10;99.90
39919;DHT22;25589;51.552;13.424;2024-03-22T08:57:54;12.90;99.90
39919;DHT22;25589;51.552;13.424;2024-03-22T09:00:20;12.40;99.90
39919;DHT22;25589;51.552;13.424;2024-03-22T09:02:46;13.60;99.90
39919;DHT22;25589;51.552;13.424;2024-03-22T09:05:12;12.90;99.90
39919;DHT22;25589;51.552;13.424;2024-03-22T09:07:38;13.20;99.90
39919;DHT22;25589;51.552;13.424;2024-03-22T09:10:05;13.20;99.90
39919;DHT22;25589;51.552;13.424;2024-03-22T09:12:31;13.20;99.90
39919;DHT22;25589;51.552;13.424;2024-03-22T09:14:57;13.30;99.90
39919;DHT22;25589;51.552;13.424;2024-03-22T09:17:23;13.60;99.90
39919;DHT22;25589;51.552;13.424;2024-03-22T09:19:48;13.40;99.90
39919;DHT22;25589;51.552;13.424;2024-03-22T09:22:14;13.50;99.90
39919;DHT22;25589;51.552;13.424;2024-03-22T09:24:40;13.40;99.90
39919;DHT22;25589;51.552;13.424;2024-03-22T09:27:06;13.40;99.90
39919;DHT22;25589;51.552;13.424;2024-03-22T09:29:36;13.90;99.90
39919;DHT22;25589;51.552;13.424;2024-03-22T09:32:02;13.90;99.90
39919;DHT22;25589;51.552;13.424;2024-03-22T09:34:28;14.10;99.90
39919;DHT22;25589;51.552;13.424;2024-03-22T09:36:57;13.90;99.90
39919;DHT22;25589;51.552;13.424;2024-03-22T09:39:23;13.90;99.90
39919;DHT22;25589;51.552;13.424;2024-03-22T09:41:50;14.00;99.90
39919;DHT22;25589;51.552;13.424;2024-03-22T09:44:18;14.20;99.90
39919;DHT22;25589;51.552;13.424;2024-03-22T09:46:46;14.30;99.90
39919;DHT22;25589;51.552;13.424;2024-03-22T09:49:12;13.80;99.90
39919;DHT22;25589;51.552;13.424;2024-03-22T09:51:39;14.50;99.90
39919;DHT22;25589;51.552;13.424;2024-03-22T09:54:05;14.60;99.90
39919;DHT22;25589;51.552;13.424;2024-03-22T09:56:31;14.60;99.90
39919;DHT22;25589;51.552;13.424;2024-03-22T09:58:58;14.60;99.90
39919;DHT22;25589;51.552;13.424;2024-03-22T10:01:25;14.50;99.90
39919;DHT22;25589;51.552;13.424;2024-03-22T10:03:52;14.50;99.90
39919;DHT22;25589;51.552;13.424;2024-03-22T10:06:18;14.00;99.90
39919;DHT22;25589;51.552;13.424;2024-03-22T10:08:44;14.40;99.90
39919;DHT22;25589;51.552;13.424;2024-03-22T10:11:10;14.70;99.90
39919;DHT22;25589;51.552;13.424;2024-03-22T10:13:36;14.40;99.90
39919;DHT22;25589;51.552;13.424;2024-03-22T10:16:02;14.50;99.90
39919;DHT22;25589;51.552;13.424;2024-03-22T10:18:28;13.80;99.90
39919;DHT22;25589;51.552;13.424;2024-03-22T10:21:06;14.50;99.90
39919;DHT22;25589;51.552;13.424;2024-03-22T10:23:32;14.50;99.90
39919;DHT22;25589;51.552;13.424;2024-03-22T10:26:01;14.60;99.90
39919;DHT22;25589;51.552;13.424;2024-03-22T10:28:27;14.50;99.90
39919;DHT22;25589;51.552;13.424;2024-03-22T10:30:52;14.60;99.90
39919;DHT22;25589;51.552;13.424;2024-03-22T10:33:20;14.50;99.90
39919;DHT22;25589;51.552;13.424;2024-03-22T10:35:51;14.60;99.90
39919;DHT22;25589;51.552;13.424;2024-03-22T10:38:22;14.40;99.90
39919;DHT22;25589;51.552;13.424;2024-03-22T10:40:48;14.20;99.90
39919;DHT22;25589;51.552;13.424;2024-03-22T10:43:17;14.30;99.90
39919;DHT22;25589;51.552;13.424;2024-03-22T10:45:43;14.30;99.90
39919;DHT22;25589;51.552;13.424;2024-03-22T10:50:41;14.30;99.90
39919;DHT22;25589;51.552;13.424;2024-03-22T10:53:14;14.60;99.90
39919;DHT22;25589;51.552;13.424;2024-03-22T10:55:46;14.60;99.90
39919;DHT22;25589;51.552;13.424;2024-03-22T10:58:22;14.70;99.90
39919;DHT22;25589;51.552;13.424;2024-03-22T11:00:52;14.90;99.90
39919;DHT22;25589;51.552;13.424;2024-03-22T11:03:22;15.00;99.90
39919;DHT22;25589;51.552;13.424;2024-03-22T11:05:53;15.00;99.90
39919;DHT22;25589;51.552;13.424;2024-03-22T11:08:29;15.30;99.90
39919;DHT22;25589;51.552;13.424;2024-03-22T11:10:57;15.70;99.90
39919;DHT22;25589;51.552;13.424;2024-03-22T11:13:23;15.50;99.90
39919;DHT22;25589;51.552;13.424;2024-03-22T11:15:49;15.40;99.90
39919;DHT22;25589;51.552;13.424;2024-03-22T11:18:15;15.80;99.90
39919;DHT22;25589;51.552;13.424;2024-03-22T11:20:42;15.70;99.90
39919;DHT22;25589;51.552;13.424;2024-03-22T11:23:09;15.60;99.90
39919;DHT22;25589;51.552;13.424;2024-03-22T11:25:34;15.40;99.90
39919;DHT22;25589;51.552;13.424;2024-03-22T11:28:00;15.60;99.90
39919;DHT22;25589;51.552;13.424;2024-03-22T11:30:32;15.80;99.90
39919;DHT22;25589;51.552;13.424;2024-03-22T11:33:01;15.70;99.90
39919;DHT22;25589;51.552;13.424;2024-03-22T11:35:27;15.80;99.90
39919;DHT22;25589;51.552;13.424;2024-03-22T11:37:53;15.80;99.90
39919;DHT22;25589;51.552;13.424;2024-03-22T11:40:19;15.80;99.90
39919;DHT22;25589;51.552;13.424;2024-03-22T11:45:15;15.90;99.90
39919;DHT22;25589;51.552;13.424;2024-03-22T11:47:41;16.00;99.90
39919;DHT22;25589;51.552;13.424;2024-03-22T11:50:07;15.90;99.90
39919;DHT22;25589;51.552;13.424;2024-03-22T11:52:34;16.00;99.90
39919;DHT22;25589;51.552;13.424;2024-03-22T11:55:00;16.20;99.90
39919;DHT22;25589;51.552;13.424;2024-03-22T11:57:27;16.30;99.90
39919;DHT22;25589;51.552;13.424;2024-03-22T12:00:02;15.80;99.90
39919;DHT22;25589;51.552;13.424;2024-03-22T12:02:37;16.80;99.90
39919;DHT22;25589;51.552;13.424;2024-03-22T12:05:04;16.50;99.90
39919;DHT22;25589;51.552;13.424;2024-03-22T12:07:30;16.80;99.90
39919;DHT22;25589;51.552;13.424;2024-03-22T12:09:56;17.00;99.90
39919;DHT22;25589;51.552;13.424;2024-03-22T12:12:22;17.20;99.90
39919;DHT22;25589;51.552;13.424;2024-03-22T12:14:48;17.20;99.90
39919;DHT22;25589;51.552;13.424;2024-03-22T12:17:16;17.20;99.90
39919;DHT22;25589;51.552;13.424;2024-03-22T12:19:42;17.00;99.90
39919;DHT22;25589;51.552;13.424;2024-03-22T12:22:08;16.90;99.90
39919;DHT22;25589;51.552;13.424;2024-03-22T12:24:34;16.70;99.90
39919;DHT22;25589;51.552;13.424;2024-03-22T12:26:59;16.70;99.90
39919;DHT22;25589;51.552;13.424;2024-03-22T12:29:25;16.60;99.90
39919;DHT22;25589;51.552;13.424;2024-03-22T12:31:51;16.60;99.90
39919;DHT22;25589;51.552;13.424;2024-03-22T12:34:16;16.60;99.90
39919;DHT22;25589;51.552;13.424;2024-03-22T12:39:09;16.50;99.90
39919;DHT22;25589;51.552;13.424;2024-03-22T12:41:34;16.50;99.90
39919;DHT22;25589;51.552;13.424;2024-03-22T12:44:01;16.40;99.90
39919;DHT22;25589;51.552;13.424;2024-03-22T12:46:26;16.50;99.90
39919;DHT22;25589;51.552;13.424;2024-03-22T12:48:53;16.50;99.90
39919;DHT22;25589;51.552;13.424;2024-03-22T12:51:19;16.60;99.90
39919;DHT22;25589;51.552;13.424;2024-03-22T12:53:46;16.80;99.90
39919;DHT22;25589;51.552;13.424;2024-03-22T12:56:12;16.90;99.90
39919;DHT22;25589;51.552;13.424;2024-03-22T12:58:37;16.90;99.90
39919;DHT22;25589;51.552;13.424;2024-03-22T13:01:05;16.90;99.90
39919;DHT22;25589;51.552;13.424;2024-03-22T13:03:32;17.00;99.90
39919;DHT22;25589;51.552;13.424;2024-03-22T13:05:58;17.10;99.90
39919;DHT22;25589;51.552;13.424;2024-03-22T13:08:23;16.60;99.90
39919;DHT22;25589;51.552;13.424;2024-03-22T13:10:49;16.70;99.90
39919;DHT22;25589;51.552;13.424;2024-03-22T13:13:15;16.70;99.90
39919;DHT22;25589;51.552;13.424;2024-03-22T13:15:42;16.70;99.90
39919;DHT22;25589;51.552;13.424;2024-03-22T13:18:08;16.80;99.90
39919;DHT22;25589;51.552;13.424;2024-03-22T13:20:38;16.80;99.90
39919;DHT22;25589;51.552;13.424;2024-03-22T13:23:04;16.90;99.90
39919;DHT22;25589;51.552;13.424;2024-03-22T13:25:30;17.00;99.90
39919;DHT22;25589;51.552;13.424;2024-03-22T13:27:56;16.90;99.90
39919;DHT22;25589;51.552;13.424;2024-03-22T13:30:21;16.90;99.90
39919;DHT22;25589;51.552;13.424;2024-03-22T13:32:47;16.70;99.90
39919;DHT22;25589;51.552;13.424;2024-03-22T13:35:13;16.40;99.90
39919;DHT22;25589;51.552;13.424;2024-03-22T13:42:32;17.40;99.90
39919;DHT22;25589;51.552;13.424;2024-03-22T13:44:57;17.20;99.90
39919;DHT22;25589;51.552;13.424;2024-03-22T13:47:23;17.10;99.90
39919;DHT22;25589;51.552;13.424;2024-03-22T13:49:50;17.20;99.90
39919;DHT22;25589;51.552;13.424;2024-03-22T13:52:15;17.10;99.90
39919;DHT22;25589;51.552;13.424;2024-03-22T13:54:41;17.30;99.90
39919;DHT22;25589;51.552;13.424;2024-03-22T13:57:07;17.40;99.90
39919;DHT22;25589;51.552;13.424;2024-03-22T13:59:33;17.80;99.90
39919;DHT22;25589;51.552;13.424;2024-03-22T14:01:59;17.70;99.90
39919;DHT22;25589;51.552;13.424;2024-03-22T14:04:24;17.90;99.90
39919;DHT22;25589;51.552;13.424;2024-03-22T14:06:52;18.00;99.90
39919;DHT22;25589;51.552;13.424;2024-03-22T14:09:18;18.00;99.90
39919;DHT22;25589;51.552;13.424;2024-03-22T14:11:43;18.10;99.90
39919;DHT22;25589;51.552;13.424;2024-03-22T14:14:09;18.10;99.90
39919;DHT22;25589;51.552;13.424;2024-03-22T14:16:38;18.40;99.90
39919;DHT22;25589;51.552;13.424;2024-03-22T14:19:03;18.30;99.90
39919;DHT22;25589;51.552;13.424;2024-03-22T14:21:29;18.70;99.90
39919;DHT22;25589;51.552;13.424;2024-03-22T14:23:55;18.20;99.90
39919;DHT22;25589;51.552;13.424;2024-03-22T14:26:21;18.20;99.90
39919;DHT22;25589;51.552;13.424;2024-03-22T14:28:47;18.20;99.90
39919;DHT22;25589;51.552;13.424;2024-03-22T14:31:13;18.20;99.90
39919;DHT22;25589;51.552;13.424;2024-03-22T14:33:39;18.20;99.90
39919;DHT22;25589;51.552;13.424;2024-03-22T14:36:06;18.00;99.90
39919;DHT22;25589;51.552;13.424;2024-03-22T14:38:33;17.90;99.90
39919;DHT22;25589;51.552;13.424;2024-03-22T14:40:59;17.90;99.90
39919;DHT22;25589;51.552;13.424;2024-03-22T14:43:25;17.90;99.90
39919;DHT22;25589;51.552;13.424;2024-03-22T14:45:55;17.80;99.90
39919;DHT22;25589;51.552;13.424;2024-03-22T14:48:23;17.70;99.90
39919;DHT22;25589;51.552;13.424;2024-03-22T14:50:50;17.60;99.90
39919;DHT22;25589;51.552;13.424;2024-03-22T14:53:19;17.60;99.90
39919;DHT22;25589;51.552;13.424;2024-03-22T14:55:53;17.60;99.90
39919;DHT22;25589;51.552;13.424;2024-03-22T14:58:20;17.40;99.90
39919;DHT22;25589;51.552;13.424;2024-03-22T15:00:53;17.30;99.90
39919;DHT22;25589;51.552;13.424;2024-03-22T15:03:19;17.20;99.90
39919;DHT22;25589;51.552;13.424;2024-03-22T15:05:45;17.30;99.90
39919;DHT22;25589;51.552;13.424;2024-03-22T15:08:10;17.50;99.90
39919;DHT22;25589;51.552;13.424;2024-03-22T15:10:37;17.30;99.90
39919;DHT22;25589;51.552;13.424;2024-03-22T15:13:03;17.70;99.90
39919;DHT22;25589;51.552;13.424;2024-03-22T15:15:29;17.40;99.90
39919;DHT22;25589;51.552;13.424;2024-03-22T15:17:54;17.00;99.90
39919;DHT22;25589;51.552;13.424;2024-03-22T15:20:20;17.30;99.90
39919;DHT22;25589;51.552;13.424;2024-03-22T15:22:46;17.00;99.90
39919;DHT22;25589;51.552;13.424;2024-03-22T15:25:11;17.20;99.90
39919;DHT22;25589;51.552;13.424;2024-03-22T15:27:37;17.20;99.90
39919;DHT22;25589;51.552;13.424;2024-03-22T15:30:03;17.00;99.90
39919;DHT22;25589;51.552;13.424;2024-03-22T15:32:31;17.10;99.90
39919;DHT22;25589;51.552;13.424;2024-03-22T15:34:57;17.00;99.90
39919;DHT22;25589;51.552;13.424;2024-03-22T15:37:22;17.00;99.90
39919;DHT22;25589;51.552;13.424;2024-03-22T15:39:48;16.20;99.90
39919;DHT22;25589;51.552;13.424;2024-03-22T15:42:14;16.50;99.90
39919;DHT22;25589;51.552;13.424;2024-03-22T15:44:40;16.50;99.90
39919;DHT22;25589;51.552;13.424;2024-03-22T15:47:05;16.40;99.90
39919;DHT22;25589;51.552;13.424;2024-03-22T15:49:31;16.20;99.90
39919;DHT22;25589;51.552;13.424;2024-03-22T15:51:57;15.70;99.90
39919;DHT22;25589;51.552;13.424;2024-03-22T15:54:23;16.20;99.90
39919;DHT22;25589;51.552;13.424;2024-03-22T15:56:48;15.80;99.90